Time;durP1;ratioP1;P1;durP2;ratioP2;P2;SDS_P1;SDS_P2;PMS_P1;PMS_P2;Temp;Humidity;BMP_temperature;BMP_pressure;BME280_temperature;BME280_humidity;BME280_pressure;Samples;Min_cycle;Max_cycle;Signal;HPM_P1;HPM_P2
2022/12/14 00:01:43;;;;;;;24.03;14.13;;;;;;;-3.83;72.56;94068.81;4991205;28;20246;-78
2022/12/14 00:04:16;;;;;;;23.17;13.23;;;;;;;-3.89;71.85;94066.66;4906489;29;20206;-78
2022/12/14 00:10:20;;;;;;;;;;;;;;;;;;;;;
2022/12/14 00:17:11;;;;;;;;;;;;;;;;;;;;;
2022/12/14 00:19:55;;;;;;;23.53;13.97;;;;;;;-3.84;73.11;94069.72;4912912;29;20238;-81
2022/12/14 00:22:49;;;;;;;23.47;14.07;;;;;;;-3.78;73.54;94063.47;4901737;29;20211;-80
2022/12/14 00:26:03;;;;;;;23.17;13.67;;;;;;;-3.85;74.56;94057.97;4903789;29;20512;-80
2022/12/14 00:28:49;;;;;;;32.40;15.73;;;;;;;-3.88;75.17;94052.28;4890052;29;20271;-80
2022/12/14 00:31:36;;;;;;;21.23;13.40;;;;;;;-3.89;76.35;94048.09;4911512;29;20237;-80
2022/12/14 00:38:04;;;;;;;25.80;14.90;;;;;;;-3.81;76.88;94046.69;4896969;29;20870;-80
2022/12/14 00:41:25;;;;;;;;;;;;;;;;;;;;;
2022/12/14 00:44:32;;;;;;;23.73;14.27;;;;;;;-3.87;77.97;94041.22;4912156;29;20210;-80
2022/12/14 00:47:51;;;;;;;;;;;;;;;;;;;;;
2022/12/14 00:54:13;;;;;;;24.57;15.60;;;;;;;-3.81;78.40;94044.16;4804478;29;20205;-80
2022/12/14 00:57:49;;;;;;;;;;;;;;;;;;;;;
2022/12/14 01:07:28;;;;;;;27.80;14.73;;;;;;;-3.95;79.40;94035.81;4857389;29;20234;-79
2022/12/14 01:17:47;;;;;;;27.03;15.53;;;;;;;-3.94;80.46;94039.97;4847426;29;20204;-79
2022/12/14 01:21:11;;;;;;;27.00;14.90;;;;;;;-3.82;79.76;94047.59;4851486;29;20588;-80
2022/12/14 01:27:26;;;;;;;29.50;15.80;;;;;;;-3.76;79.20;94044.69;4809897;29;20214;-79
2022/12/14 01:30:32;;;;;;;;;;;;;;;;;;;;;
2022/12/14 01:37:01;;;;;;;27.87;16.83;;;;;;;-3.61;78.79;94029.41;4820415;29;20762;-80
2022/12/14 01:40:09;;;;;;;26.33;16.50;;;;;;;-3.57;79.04;94026.53;4812096;29;20992;-79
2022/12/14 01:46:53;;;;;;;;;;;;;;;;;;;;;
2022/12/14 01:50:10;;;;;;;;;;;;;;;;;;;;;
2022/12/14 01:53:31;;;;;;;25.50;15.20;;;;;;;-3.52;79.01;93996.63;4743848;30;20209;-79
2022/12/14 01:56:28;;;;;;;24.57;15.17;;;;;;;-3.62;79.39;94002.38;4729204;30;20248;-79
2022/12/14 01:59:54;;;;;;;;;;;;;;;;;;;;;
2022/12/14 02:03:30;;;;;;;;;;;;;;;;;;;;;
2022/12/14 02:07:13;;;;;;;25.63;15.53;;;;;;;-3.49;79.62;94009.09;4687415;30;20223;-80
2022/12/14 02:31:42;;;;;;;24.83;16.07;;;;;;;-3.60;80.73;93977.72;4798219;29;20209;-81
2022/12/14 02:34:53;;;;;;;29.40;16.57;;;;;;;-3.48;80.66;93987.06;4797042;29;20194;-80
2022/12/14 02:45:25;;;;;;;;;;;;;;;;;;;;;
2022/12/14 02:55:29;;;;;;;29.63;17.07;;;;;;;-3.51;83.78;93949.22;4730531;30;20225;-79
2022/12/14 03:05:55;;;;;;;27.53;16.43;;;;;;;-3.27;84.26;93942.50;4737446;30;20219;-79
2022/12/14 03:12:16;;;;;;;32.70;19.30;;;;;;;-3.28;85.90;93945.09;4716548;30;20576;-81
2022/12/14 03:19:14;;;;;;;;;;;;;;;;;;;;;
2022/12/14 03:29:47;;;;;;;28.73;17.57;;;;;;;-3.43;89.58;93930.00;4758082;30;20924;-79
2022/12/14 03:36:22;;;;;;;;;;;;;;;;;;;;;
2022/12/14 03:43:11;;;;;;;;;;;;;;;;;;;;;
2022/12/14 04:01:07;;;;;;;;;;;;;;;;;;;;;
2022/12/14 04:35:34;;;;;;;;;;;;;;;;;;;;;
2022/12/14 04:49:15;;;;;;;;;;;;;;;;;;;;;
2022/12/14 05:10:20;;;;;;;;;;;;;;;;;;;;;
2022/12/14 05:13:48;;;;;;;;;;;;;;;;;;;;;
2022/12/14 05:17:17;;;;;;;45.53;26.40;;;;;;;-2.61;93.53;93847.25;4784846;30;20254;-81
2022/12/14 05:23:36;;;;;;;44.60;25.53;;;;;;;-2.33;92.73;93855.41;4791049;29;20219;-79
2022/12/14 05:53:37;;;;;;;;;;;;;;;;;;;;;
2022/12/14 06:00:40;;;;;;;;;;;;;;;;;;;;;
2022/12/14 06:03:06;;;;;;;42.17;25.10;;;;;;;-2.28;92.67;93817.75;4858310;29;20223;-80
2022/12/14 06:05:33;;;;;;;44.63;26.30;;;;;;;-2.37;93.69;93814.16;4843000;29;20225;-82
2022/12/14 06:08:04;;;;;;;46.13;27.53;;;;;;;-2.34;92.68;93806.31;4845269;29;20186;-81
2022/12/14 06:10:33;;;;;;;46.97;27.20;;;;;;;-2.29;92.77;93808.53;4829276;29;20259;-81
2022/12/14 06:12:58;;;;;;;49.83;28.03;;;;;;;-2.29;92.03;93806.78;4842304;29;20235;-82
2022/12/14 06:15:27;;;;;;;46.23;26.27;;;;;;;-2.29;93.24;93805.97;4830266;29;20270;-80
2022/12/14 06:18:13;;;;;;;47.37;26.83;;;;;;;-2.25;92.76;93802.28;4846565;29;20311;-81
2022/12/14 06:20:38;;;;;;;44.77;27.30;;;;;;;-2.30;93.37;93807.72;4880048;29;20895;-81
2022/12/14 06:23:04;;;;;;;46.73;27.63;;;;;;;-2.28;92.77;93805.84;4895478;29;20823;-81
2022/12/14 06:25:29;;;;;;;47.00;27.53;;;;;;;-2.16;92.79;93806.66;4919445;29;20229;-81
2022/12/14 06:27:57;;;;;;;47.63;27.87;;;;;;;-2.21;92.73;93795.22;4904625;29;20194;-80
2022/12/14 06:30:31;;;;;;;46.63;26.97;;;;;;;-2.18;93.19;93800.09;4957616;28;20221;-78
2022/12/14 06:33:09;;;;;;;49.87;27.30;;;;;;;-2.18;92.89;93793.28;4929024;28;20192;-81
2022/12/14 06:35:51;;;;;;;;;;;;;;;;;;;;;
2022/12/14 06:38:26;;;;;;;47.80;27.57;;;;;;;-2.18;93.19;93767.84;4951885;28;20204;-83
2022/12/14 06:40:54;;;;;;;46.17;27.73;;;;;;;-2.13;93.76;93765.75;4957245;28;20243;-81
2022/12/14 06:46:46;;;;;;;44.73;26.63;;;;;;;-2.06;92.57;93758.47;4974478;28;20209;-80
2022/12/14 06:49:16;;;;;;;45.47;27.57;;;;;;;-2.04;93.35;93759.16;4958973;28;20287;-79
2022/12/14 06:51:42;;;;;;;45.47;26.93;;;;;;;-2.04;93.77;93754.06;4951713;28;20197;-81
2022/12/14 06:54:14;;;;;;;46.97;27.40;;;;;;;-2.03;93.84;93745.53;4950470;28;20235;-81
2022/12/14 06:56:41;;;;;;;51.00;29.23;;;;;;;-2.10;93.78;93744.38;4964810;28;20678;-79
2022/12/14 06:59:14;;;;;;;49.13;29.73;;;;;;;-2.06;93.50;93749.09;4957816;28;20691;-81
2022/12/14 07:01:39;;;;;;;53.23;29.00;;;;;;;-2.02;93.77;93740.34;4955164;28;20263;-82
2022/12/14 07:04:08;;;;;;;48.60;29.20;;;;;;;-2.09;93.86;93736.63;4973412;28;20223;-83
2022/12/14 07:06:38;;;;;;;52.03;28.97;;;;;;;-2.06;94.26;93745.75;4967407;28;20264;-81
2022/12/14 07:09:12;;;;;;;45.77;27.70;;;;;;;-1.96;93.67;93733.16;4954953;28;20227;-80
2022/12/14 07:12:27;;;;;;;52.33;30.60;;;;;;;-2.07;94.33;93724.59;4956258;28;20202;-81
2022/12/14 07:14:55;;;;;;;58.70;29.67;;;;;;;-2.08;94.25;93717.09;4875558;29;20223;-82
2022/12/14 07:17:20;;;;;;;56.30;29.60;;;;;;;-2.00;94.14;93719.84;4876989;29;20300;-82
2022/12/14 07:19:46;;;;;;;54.07;31.50;;;;;;;-2.06;94.51;93720.31;4881659;29;20250;-80
2022/12/14 07:22:19;;;;;;;49.67;29.43;;;;;;;-1.98;94.30;93709.56;4895876;29;20195;-82
2022/12/14 07:24:54;;;;;;;52.50;30.37;;;;;;;-1.92;93.80;93721.81;4877069;29;20223;-82
2022/12/14 07:27:28;;;;;;;54.40;31.60;;;;;;;-1.96;93.17;93723.78;4861866;29;20229;-83
2022/12/14 07:29:54;;;;;;;55.13;32.13;;;;;;;-1.98;93.75;93724.81;4879722;29;20701;-83
2022/12/14 07:32:29;;;;;;;58.83;31.93;;;;;;;-1.95;94.61;93722.03;4894579;29;20267;-82
2022/12/14 07:34:54;;;;;;;59.37;31.90;;;;;;;-1.97;94.30;93718.81;4876251;29;20232;-80
2022/12/14 07:37:36;;;;;;;56.37;31.43;;;;;;;-1.91;94.72;93719.16;4860039;29;20274;-83
2022/12/14 07:40:02;;;;;;;56.90;31.10;;;;;;;-1.94;93.63;93716.03;4888211;29;20201;-80
2022/12/14 07:42:38;;;;;;;60.23;31.10;;;;;;;-1.84;94.06;93717.78;4877879;29;20199;-81
2022/12/14 07:45:13;;;;;;;58.33;30.23;;;;;;;-1.82;93.71;93708.28;4891540;29;20223;-79
2022/12/14 07:47:38;;;;;;;52.10;31.20;;;;;;;-1.86;93.59;93706.88;4878022;29;20196;-81
2022/12/14 07:50:04;;;;;;;53.30;31.30;;;;;;;-1.77;93.57;93706.19;4877284;29;20615;-82
2022/12/14 07:52:32;;;;;;;55.97;31.37;;;;;;;-1.75;93.44;93713.72;4950622;28;20221;-82
2022/12/14 07:54:57;;;;;;;55.23;31.73;;;;;;;-1.74;93.25;93716.13;4972452;28;20217;-81
2022/12/14 07:57:35;;;;;;;56.47;33.17;;;;;;;-1.73;93.79;93722.03;4957764;28;20279;-82
2022/12/14 08:00:01;;;;;;;51.70;30.93;;;;;;;-1.66;93.66;93723.19;4933621;28;20188;-81
2022/12/14 08:02:26;;;;;;;52.40;30.00;;;;;;;-1.61;93.63;93726.16;4959568;28;20682;-82
2022/12/14 08:04:51;;;;;;;57.93;32.63;;;;;;;-1.71;93.92;93722.72;4961288;28;21129;-81
2022/12/14 08:07:17;;;;;;;53.17;29.40;;;;;;;-1.56;93.43;93702.91;4962528;28;20244;-80
2022/12/14 08:09:49;;;;;;;58.40;29.90;;;;;;;-1.50;93.02;93700.69;4961743;28;20188;-79
2022/12/14 08:12:17;;;;;;;54.10;30.63;;;;;;;-1.43;93.11;93706.09;4959396;28;20180;-82
2022/12/14 08:14:52;;;;;;;51.53;30.13;;;;;;;-1.44;92.79;93707.03;4950136;28;20592;-81
2022/12/14 08:17:33;;;;;;;49.37;28.73;;;;;;;-1.43;92.84;93694.16;4959898;28;20202;-83
2022/12/14 08:19:58;;;;;;;52.23;29.07;;;;;;;-1.39;91.87;93704.13;4958919;28;20283;-81
2022/12/14 08:22:39;;;;;;;51.00;29.27;;;;;;;-1.37;92.07;93710.72;4942878;28;20254;-82
2022/12/14 08:25:37;;;;;;;54.80;29.07;;;;;;;-1.30;92.44;93724.56;4948159;28;20294;-84
2022/12/14 08:28:06;;;;;;;50.80;29.27;;;;;;;-1.49;93.17;93721.88;4951068;28;20224;-81
2022/12/14 08:31:04;;;;;;;50.03;28.13;;;;;;;-1.39;93.35;93709.22;4944083;28;20198;-83
2022/12/14 08:33:30;;;;;;;57.80;30.40;;;;;;;-1.25;92.92;93703.81;4977065;28;20201;-83
2022/12/14 08:36:23;;;;;;;56.27;30.73;;;;;;;-1.22;92.61;93695.97;4934243;28;20215;-84
2022/12/14 08:39:00;;;;;;;63.60;33.60;;;;;;;-1.22;92.63;93709.50;4933637;28;20215;-81
2022/12/14 08:41:27;;;;;;;53.03;30.93;;;;;;;-1.30;92.19;93703.41;4956020;28;20184;-82
2022/12/14 08:43:57;;;;;;;50.33;30.07;;;;;;;-1.21;93.26;93706.03;4948889;28;20243;-83
2022/12/14 08:46:23;;;;;;;60.37;31.83;;;;;;;-1.13;92.82;93707.97;4953100;28;20204;-82
2022/12/14 08:48:55;;;;;;;53.47;31.20;;;;;;;-1.06;92.92;93709.09;4944406;28;20274;-82
2022/12/14 08:51:51;;;;;;;66.60;38.80;;;;;;;-1.32;93.85;93700.16;4957883;28;20191;-84
2022/12/14 08:54:18;;;;;;;53.97;32.13;;;;;;;-1.24;92.61;93702.88;4935170;28;20204;-80
2022/12/14 08:56:43;;;;;;;57.50;32.03;;;;;;;-1.24;93.01;93710.53;4956062;28;20182;-81
2022/12/14 08:59:08;;;;;;;56.67;33.70;;;;;;;-1.29;92.91;93710.91;4960675;28;20617;-81
2022/12/14 09:01:34;;;;;;;61.57;36.77;;;;;;;-1.42;93.77;93695.78;4952897;28;20223;-83
2022/12/14 09:04:03;;;;;;;59.33;34.57;;;;;;;-1.31;94.16;93702.59;4962991;28;20550;-82
2022/12/14 09:06:29;;;;;;;60.90;32.57;;;;;;;-1.18;94.18;93698.13;4977052;28;20212;-82
2022/12/14 09:08:56;;;;;;;63.50;36.40;;;;;;;-1.17;94.15;93694.66;4937276;28;20202;-82
2022/12/14 09:11:22;;;;;;;66.60;37.87;;;;;;;-1.17;93.86;93696.38;4959822;28;20192;-82
2022/12/14 09:13:52;;;;;;;68.23;38.03;;;;;;;-1.18;94.53;93692.22;4946742;28;20180;-83
2022/12/14 09:16:18;;;;;;;61.80;35.27;;;;;;;-0.97;93.63;93697.34;4941490;28;20698;-83
2022/12/14 09:18:45;;;;;;;57.13;32.37;;;;;;;-0.93;93.27;93689.34;4971284;28;20204;-81
2022/12/14 09:21:11;;;;;;;54.53;31.83;;;;;;;-0.98;94.17;93699.06;4954548;28;20185;-83
2022/12/14 09:23:36;;;;;;;54.90;32.80;;;;;;;-0.99;94.49;93697.47;4944641;28;20623;-83
2022/12/14 09:26:04;;;;;;;55.17;32.37;;;;;;;-0.96;94.96;93687.03;4953833;28;20230;-81
2022/12/14 09:28:31;;;;;;;57.87;32.00;;;;;;;-0.94;94.99;93695.38;4958063;28;20612;-83
2022/12/14 09:30:59;;;;;;;53.73;32.30;;;;;;;-0.86;94.82;93694.75;4934218;28;20265;-83
2022/12/14 09:33:27;;;;;;;64.83;36.53;;;;;;;-0.74;94.56;93700.59;4933861;28;20199;-84
2022/12/14 09:35:59;;;;;;;60.13;34.17;;;;;;;-0.78;94.97;93692.38;4959659;28;20223;-81
2022/12/14 09:38:24;;;;;;;62.53;33.73;;;;;;;-0.74;94.93;93703.94;4956392;28;20204;-83
2022/12/14 09:40:55;;;;;;;59.67;34.03;;;;;;;-0.75;95.59;93706.63;4943538;28;20191;-82
2022/12/14 09:43:41;;;;;;;57.93;31.03;;;;;;;-0.66;95.03;93706.66;4958035;28;20183;-83
2022/12/14 09:46:18;;;;;;;62.83;33.90;;;;;;;-0.68;94.30;93707.75;4957495;28;20247;-83
2022/12/14 09:48:44;;;;;;;63.40;34.47;;;;;;;-0.71;94.47;93713.88;4955098;28;20206;-83
2022/12/14 09:51:14;;;;;;;55.03;32.43;;;;;;;-0.67;94.02;93717.81;4978330;28;20248;-80
2022/12/14 09:53:40;;;;;;;57.93;33.50;;;;;;;-0.81;94.64;93712.19;4944661;28;20181;-81
2022/12/14 09:56:07;;;;;;;54.30;33.83;;;;;;;-0.67;94.49;93706.81;4932659;29;20242;-81
2022/12/14 09:58:34;;;;;;;83.07;39.87;;;;;;;-0.72;94.47;93702.06;4930486;28;20210;-82
2022/12/14 10:01:21;;;;;;;62.83;34.27;;;;;;;-0.60;93.41;93700.28;4954332;28;20185;-83
2022/12/14 10:04:23;;;;;;;64.13;36.30;;;;;;;-0.78;93.44;93697.47;4978970;28;20231;-82
2022/12/14 10:07:01;;;;;;;54.97;32.80;;;;;;;-0.69;93.96;93694.19;4955892;28;20195;-82
2022/12/14 10:10:05;;;;;;;58.93;34.03;;;;;;;-1.00;94.48;93703.50;4957235;28;20262;-79
2022/12/14 10:12:45;;;;;;;64.87;34.50;;;;;;;-1.07;94.67;93704.09;4889584;28;20206;-82
2022/12/14 10:15:23;;;;;;;59.57;33.83;;;;;;;-1.16;94.74;93706.44;4944070;28;20242;-81
2022/12/14 10:18:07;;;;;;;53.50;29.07;;;;;;;-0.95;93.73;93698.84;4954043;28;20186;-80
2022/12/14 10:20:53;;;;;;;48.70;29.53;;;;;;;-0.82;92.59;93696.09;4952693;28;20239;-81
2022/12/14 10:23:21;;;;;;;48.80;29.90;;;;;;;-1.12;93.73;93699.38;4955696;28;20205;-82
2022/12/14 10:25:50;;;;;;;50.10;29.83;;;;;;;-1.00;94.10;93689.94;4953028;28;20561;-79
2022/12/14 10:28:49;;;;;;;43.37;28.17;;;;;;;-0.93;93.39;93696.97;4957059;28;20189;-82
2022/12/14 10:31:23;;;;;;;51.90;30.17;;;;;;;-1.06;92.67;93688.72;4948423;28;20353;-82
2022/12/14 10:33:49;;;;;;;57.43;33.40;;;;;;;-1.04;93.32;93693.69;4956634;28;20199;-81
2022/12/14 10:36:23;;;;;;;50.47;30.70;;;;;;;-0.82;93.09;93690.19;4940757;28;20218;-81
2022/12/14 10:39:00;;;;;;;53.07;30.47;;;;;;;-0.51;92.37;93698.72;4953827;28;20716;-81
2022/12/14 10:41:40;;;;;;;55.13;30.67;;;;;;;-0.42;90.81;93705.59;4958117;28;20242;-82
2022/12/14 10:44:19;;;;;;;51.90;29.03;;;;;;;-0.44;90.97;93708.28;4973961;28;20661;-81
2022/12/14 10:46:52;;;;;;;42.17;27.70;;;;;;;-0.32;90.55;93701.34;4941268;28;20199;-82
2022/12/14 10:49:26;;;;;;;43.50;27.80;;;;;;;-0.20;89.63;93699.50;4959011;28;20181;-82
2022/12/14 10:52:07;;;;;;;42.10;26.60;;;;;;;-0.28;88.79;93697.59;4959819;28;20205;-82
2022/12/14 10:54:37;;;;;;;38.90;26.07;;;;;;;-0.55;89.00;93690.50;4962412;28;20787;-79
2022/12/14 10:57:03;;;;;;;42.53;28.13;;;;;;;-0.46;88.57;93691.47;4961065;28;20191;-80
2022/12/14 10:59:32;;;;;;;39.93;27.80;;;;;;;-0.36;88.91;93693.13;4944648;28;20307;-82
2022/12/14 11:02:04;;;;;;;42.57;26.50;;;;;;;-0.40;87.82;93689.22;4952429;28;20574;-82
2022/12/14 11:04:38;;;;;;;42.30;28.67;;;;;;;-0.40;87.66;93696.88;4975533;28;20854;-82
2022/12/14 11:07:09;;;;;;;43.13;28.63;;;;;;;-0.13;87.57;93693.78;4940513;28;20195;-82
2022/12/14 11:09:34;;;;;;;40.87;27.23;;;;;;;-0.12;85.54;93697.13;4942674;28;20183;-83
2022/12/14 11:12:03;;;;;;;42.50;27.17;;;;;;;-0.06;84.31;93696.63;4942309;28;20360;-83
2022/12/14 11:14:28;;;;;;;38.67;26.17;;;;;;;0.07;84.64;93694.66;4943439;28;20195;-82
2022/12/14 11:16:54;;;;;;;40.40;27.57;;;;;;;-0.06;84.02;93697.44;4936004;28;20192;-81
2022/12/14 11:19:22;;;;;;;39.20;26.57;;;;;;;-0.05;85.22;93695.69;4957802;28;20235;-80
2022/12/14 11:21:48;;;;;;;40.57;27.17;;;;;;;-0.29;84.61;93689.16;4949332;28;20194;-83
2022/12/14 11:24:26;;;;;;;38.83;27.57;;;;;;;-0.32;85.65;93689.41;4939063;28;20200;-82
2022/12/14 11:26:53;;;;;;;37.73;26.10;;;;;;;-0.41;86.08;93679.16;4941517;28;20202;-82
2022/12/14 11:29:21;;;;;;;38.03;26.03;;;;;;;-0.38;85.92;93686.56;4955261;28;20636;-81
2022/12/14 11:31:48;;;;;;;35.50;26.10;;;;;;;-0.29;85.94;93686.59;4945220;28;20212;-82
2022/12/14 11:34:31;;;;;;;39.60;26.57;;;;;;;-0.30;85.73;93694.38;4960023;28;20183;-81
2022/12/14 11:37:25;;;;;;;40.03;27.90;;;;;;;-0.15;85.44;93690.56;4958066;28;20195;-80
2022/12/14 11:39:53;;;;;;;38.53;28.10;;;;;;;0.01;84.76;93687.53;4941874;28;20247;-82
2022/12/14 11:42:20;;;;;;;41.10;27.97;;;;;;;0.33;84.67;93678.84;4947058;28;20204;-80
2022/12/14 11:44:47;;;;;;;43.53;28.80;;;;;;;0.22;82.54;93675.47;4947432;28;20250;-82
2022/12/14 11:47:21;;;;;;;42.27;28.20;;;;;;;0.48;81.77;93677.53;4941862;28;20183;-79
2022/12/14 11:49:53;;;;;;;39.27;27.60;;;;;;;0.76;81.31;93678.50;4954391;28;20240;-80
2022/12/14 11:52:24;;;;;;;38.93;26.10;;;;;;;0.55;81.36;93687.09;4959106;28;20237;-80
2022/12/14 11:55:10;;;;;;;41.60;27.63;;;;;;;0.17;80.75;93694.66;4941043;28;20211;-81
2022/12/14 11:57:51;;;;;;;38.13;26.70;;;;;;;0.18;81.65;93709.06;4940870;28;20211;-80
2022/12/14 12:00:29;;;;;;;37.07;25.87;;;;;;;0.19;82.18;93696.19;4941575;28;20196;-80
2022/12/14 12:03:05;;;;;;;39.67;25.30;;;;;;;-0.03;81.65;93706.56;4949359;28;20202;-83
2022/12/14 12:05:32;;;;;;;37.60;25.40;;;;;;;-0.15;82.72;93702.50;4940895;28;20218;-80
2022/12/14 12:07:58;;;;;;;41.60;26.77;;;;;;;-0.35;83.71;93696.50;4945291;28;20215;-82
2022/12/14 12:10:27;;;;;;;42.90;27.97;;;;;;;-0.83;85.45;93691.94;4943664;28;20216;-82
2022/12/14 12:12:54;;;;;;;39.73;27.43;;;;;;;-0.81;86.49;93699.47;4961175;28;20684;-81
2022/12/14 12:15:25;;;;;;;41.43;27.80;;;;;;;-0.98;86.93;93695.72;4944985;28;20700;-82
2022/12/14 12:18:04;;;;;;;46.33;28.70;;;;;;;-0.99;87.73;93697.47;4948130;28;20215;-80
2022/12/14 12:20:52;;;;;;;43.20;28.57;;;;;;;-0.98;88.67;93700.81;4934328;28;20218;-81
2022/12/14 12:23:24;;;;;;;41.83;27.90;;;;;;;-0.71;87.78;93701.13;4944366;28;20695;-82
2022/12/14 12:25:51;;;;;;;36.00;24.77;;;;;;;-0.70;87.35;93712.16;4954064;28;20626;-81
2022/12/14 12:28:21;;;;;;;41.07;26.50;;;;;;;-0.82;88.17;93703.75;4959940;28;20262;-79
2022/12/14 12:30:50;;;;;;;40.27;26.03;;;;;;;-0.85;87.74;93714.19;4975940;28;20206;-80
2022/12/14 12:33:26;;;;;;;39.73;26.33;;;;;;;-0.94;87.97;93712.38;4948942;28;20592;-81
2022/12/14 12:35:54;;;;;;;38.53;25.60;;;;;;;-0.74;87.74;93715.88;4957113;28;20595;-81
2022/12/14 12:38:39;;;;;;;38.67;25.33;;;;;;;-0.79;87.71;93718.00;4959980;28;20211;-81
2022/12/14 12:41:17;;;;;;;35.40;23.83;;;;;;;-0.66;87.44;93723.72;4958963;28;20184;-84
2022/12/14 12:43:45;;;;;;;38.97;25.63;;;;;;;-0.83;87.71;93722.53;4952368;28;20188;-84
2022/12/14 12:46:20;;;;;;;40.80;26.33;;;;;;;-0.76;88.03;93723.66;4958614;28;20208;-79
2022/12/14 12:48:50;;;;;;;40.83;26.27;;;;;;;-0.93;87.72;93719.91;4946288;28;20213;-79
2022/12/14 12:51:21;;;;;;;38.43;25.43;;;;;;;-0.93;88.18;93731.84;4959083;28;20193;-80
2022/12/14 12:53:55;;;;;;;39.63;25.53;;;;;;;-1.03;88.61;93734.31;4952487;28;20191;-81
2022/12/14 12:56:24;;;;;;;38.57;25.93;;;;;;;-1.08;89.10;93733.88;4937379;28;20217;-82
2022/12/14 12:58:51;;;;;;;39.87;26.53;;;;;;;-1.04;89.52;93737.00;4943127;28;20273;-80
2022/12/14 13:01:22;;;;;;;44.40;26.30;;;;;;;-1.05;89.36;93736.19;4958807;28;20196;-81
2022/12/14 13:03:50;;;;;;;38.43;26.27;;;;;;;-1.25;90.32;93731.84;4958193;28;20202;-80
2022/12/14 13:06:40;;;;;;;48.57;28.30;;;;;;;-1.18;89.63;93715.97;4946774;28;20303;-80
2022/12/14 13:09:33;;;;;;;46.83;28.20;;;;;;;-1.06;90.02;93715.91;4942233;28;20187;-78
2022/12/14 13:11:59;;;;;;;43.93;29.43;;;;;;;-1.04;89.64;93716.59;4940783;28;20216;-79
2022/12/14 13:14:32;;;;;;;70.93;40.20;;;;;;;-1.00;88.90;93706.03;4938514;28;20243;-80
2022/12/14 13:16:58;;;;;;;91.33;53.47;;;;;;;-0.82;89.01;93708.03;4956549;28;20188;-78
2022/12/14 13:19:36;;;;;;;56.90;33.00;;;;;;;-0.93;88.11;93707.16;4941264;28;20219;-79
2022/12/14 13:22:02;;;;;;;52.87;33.00;;;;;;;-0.96;88.77;93709.97;4957232;28;20240;-81
2022/12/14 13:24:27;;;;;;;50.60;32.07;;;;;;;-0.82;88.47;93719.03;4958010;28;20196;-82
2022/12/14 13:27:14;;;;;;;72.83;43.63;;;;;;;-0.75;88.08;93727.00;4957356;28;20200;-80
2022/12/14 13:29:54;;;;;;;88.27;53.03;;;;;;;-0.59;87.16;93723.09;4964686;28;20245;-82
2022/12/14 13:32:28;;;;;;;67.97;42.20;;;;;;;-0.35;86.42;93722.81;4953173;28;20229;-82
2022/12/14 13:35:03;;;;;;;232.33;129.57;;;;;;;-0.50;86.60;93724.06;4952843;28;20229;-82
2022/12/14 13:37:41;;;;;;;246.40;129.53;;;;;;;-0.48;86.48;93723.94;4943105;28;20233;-81
2022/12/14 13:40:17;;;;;;;119.67;75.83;;;;;;;-0.53;86.45;93734.53;4957460;28;20221;-81
2022/12/14 13:42:50;;;;;;;114.23;80.13;;;;;;;-0.61;86.61;93734.34;4952054;28;20192;-80
2022/12/14 13:45:21;;;;;;;110.57;81.00;;;;;;;-0.47;86.22;93739.13;4955480;28;20227;-80
2022/12/14 13:47:52;;;;;;;92.77;39.77;;;;;;;-0.95;88.20;93749.81;4957223;28;20245;-81
2022/12/14 13:50:31;;;;;;;47.30;27.90;;;;;;;-0.73;87.32;93750.63;4956995;28;20181;-82
2022/12/14 13:53:00;;;;;;;82.13;27.93;;;;;;;-0.88;87.58;93758.59;4937113;28;20917;-81
2022/12/14 13:55:38;;;;;;;105.93;27.43;;;;;;;-1.11;89.62;93757.03;4957072;28;20295;-81
2022/12/14 13:58:21;;;;;;;94.57;28.07;;;;;;;-1.14;89.59;93762.38;4945591;28;20210;-81
2022/12/14 14:00:49;;;;;;;62.57;27.63;;;;;;;-1.27;90.28;93764.25;4949761;28;20211;-79
2022/12/14 14:03:33;;;;;;;81.70;28.70;;;;;;;-1.35;90.46;93775.03;4971484;28;20212;-79
2022/12/14 14:06:10;;;;;;;112.43;29.20;;;;;;;-1.37;90.85;93768.47;4955390;28;20219;-80
2022/12/14 14:08:47;;;;;;;101.13;29.87;;;;;;;-1.39;91.33;93770.31;4956746;28;20196;-81
2022/12/14 14:11:21;;;;;;;109.47;28.93;;;;;;;-1.47;91.99;93773.47;4947073;28;20363;-81
2022/12/14 14:13:47;;;;;;;73.33;32.07;;;;;;;-1.35;91.52;93779.34;4974217;28;20685;-80
2022/12/14 14:16:34;;;;;;;71.07;28.70;;;;;;;-1.50;91.98;93779.63;4974508;28;20215;-83
2022/12/14 14:19:10;;;;;;;51.67;26.40;;;;;;;-1.44;91.92;93791.84;4975485;28;20203;-81
2022/12/14 14:21:41;;;;;;;89.23;28.03;;;;;;;-1.57;92.25;93798.81;4977032;28;20714;-80
2022/12/14 14:24:15;;;;;;;66.27;26.87;;;;;;;-1.47;92.36;93798.91;4934912;28;20212;-82
2022/12/14 14:26:42;;;;;;;342.20;41.87;;;;;;;-1.84;93.12;93806.00;4976969;28;20271;-81
2022/12/14 14:29:19;;;;;;;122.03;29.00;;;;;;;-1.67;93.86;93813.19;4957032;28;20748;-82
2022/12/14 14:31:47;;;;;;;60.80;27.33;;;;;;;-1.62;93.45;93812.81;4942845;28;20188;-79
2022/12/14 14:34:46;;;;;;;200.07;33.07;;;;;;;-1.73;94.19;93809.34;4953068;28;20188;-82
2022/12/14 14:37:14;;;;;;;71.20;26.30;;;;;;;-1.68;93.85;93809.00;4957836;28;20203;-81
2022/12/14 14:39:39;;;;;;;59.83;26.73;;;;;;;-1.63;93.76;93822.19;4959026;28;20573;-82
2022/12/14 14:42:07;;;;;;;143.03;28.57;;;;;;;-1.68;93.05;93821.72;4953294;28;20199;-79
2022/12/14 14:44:42;;;;;;;59.40;26.33;;;;;;;-1.74;93.47;93822.19;4935089;28;20220;-79
2022/12/14 14:47:21;;;;;;;37.73;23.43;;;;;;;-1.86;94.08;93826.47;4937870;28;20186;-79
2022/12/14 14:49:53;;;;;;;40.87;23.27;;;;;;;-1.80;94.14;93833.63;4954478;28;20184;-80
2022/12/14 14:52:37;;;;;;;33.40;21.77;;;;;;;-1.72;94.05;93845.78;4953535;28;20192;-81
2022/12/14 14:55:28;;;;;;;36.73;21.50;;;;;;;-1.95;93.30;93841.59;4950806;28;20204;-80
2022/12/14 14:57:53;;;;;;;34.60;21.57;;;;;;;-1.87;93.36;93847.75;4954322;28;20182;-81
2022/12/14 15:00:18;;;;;;;32.43;20.50;;;;;;;-1.85;92.83;93850.19;4955747;28;20640;-81
2022/12/14 15:02:44;;;;;;;34.77;21.30;;;;;;;-2.00;92.80;93849.59;4953677;28;20285;-81
2022/12/14 15:05:16;;;;;;;32.87;21.47;;;;;;;-1.86;92.53;93861.28;4956190;28;20222;-81
2022/12/14 15:07:41;;;;;;;31.50;20.53;;;;;;;-2.01;92.95;93860.69;4955250;28;20196;-80
2022/12/14 15:10:30;;;;;;;31.27;21.43;;;;;;;-1.93;92.35;93865.22;4956064;28;20201;-81
2022/12/14 15:13:05;;;;;;;33.83;20.73;;;;;;;-1.94;92.71;93876.28;4933682;28;20209;-80
2022/12/14 15:15:37;;;;;;;33.20;21.50;;;;;;;-1.93;92.46;93883.84;4958422;28;20226;-80
2022/12/14 15:18:29;;;;;;;31.80;20.67;;;;;;;-2.10;91.89;93884.25;4958967;28;20188;-81
2022/12/14 15:21:05;;;;;;;35.80;21.07;;;;;;;-2.09;91.89;93896.88;4961596;28;20204;-80
2022/12/14 15:23:36;;;;;;;34.00;21.33;;;;;;;-2.22;92.54;93903.75;4966775;28;20200;-80
2022/12/14 15:26:02;;;;;;;33.23;21.33;;;;;;;-2.35;92.06;93900.47;4951706;28;20216;-81
2022/12/14 15:28:28;;;;;;;35.73;20.83;;;;;;;-2.17;91.25;93899.16;4954839;28;20215;-82
2022/12/14 15:30:55;;;;;;;33.43;20.83;;;;;;;-2.48;93.14;93912.44;4960892;28;20188;-82
2022/12/14 15:33:26;;;;;;;30.80;20.80;;;;;;;-2.52;92.41;93900.88;4963428;28;20181;-80
2022/12/14 15:35:51;;;;;;;32.77;21.90;;;;;;;-2.44;91.96;93909.56;4934629;28;20784;-80
2022/12/14 15:38:23;;;;;;;35.07;21.60;;;;;;;-2.26;91.37;93916.81;4961009;28;20237;-81
2022/12/14 15:41:00;;;;;;;35.70;22.53;;;;;;;-2.34;91.21;93919.91;4960203;28;20192;-81
2022/12/14 15:43:26;;;;;;;36.20;22.57;;;;;;;-2.41;91.95;93929.69;4959709;28;20694;-82
2022/12/14 15:45:57;;;;;;;31.10;21.37;;;;;;;-2.43;91.57;93936.63;4960529;28;20210;-81
2022/12/14 15:48:31;;;;;;;35.10;21.83;;;;;;;-2.40;91.36;93936.38;4945183;28;20195;-80
2022/12/14 15:51:01;;;;;;;34.47;22.37;;;;;;;-2.50;91.37;93945.59;4943330;28;20187;-82
2022/12/14 15:53:37;;;;;;;34.20;22.80;;;;;;;-2.42;91.38;93945.88;4943039;28;20197;-80
2022/12/14 15:56:13;;;;;;;35.70;22.13;;;;;;;-2.54;91.81;93939.13;4935275;28;20215;-81
2022/12/14 15:58:39;;;;;;;36.83;22.63;;;;;;;-2.55;91.84;93939.22;4960854;28;20200;-81
2022/12/14 16:01:17;;;;;;;31.10;20.30;;;;;;;-2.40;91.76;93943.22;4959665;28;20185;-82
2022/12/14 16:03:45;;;;;;;32.30;21.93;;;;;;;-2.41;91.09;93950.03;4959649;28;20194;-80
2022/12/14 16:06:11;;;;;;;32.70;22.17;;;;;;;-2.57;91.14;93952.84;4955725;28;20557;-79
2022/12/14 16:08:42;;;;;;;35.60;21.63;;;;;;;-2.57;91.78;93955.38;4955727;28;20228;-81
2022/12/14 16:11:35;;;;;;;50.20;34.00;;;;;;;-2.78;93.22;93956.88;4963359;28;20192;-79
2022/12/14 16:14:02;;;;;;;42.50;32.20;;;;;;;-2.69;93.30;93961.31;4977975;28;20204;-80
2022/12/14 16:16:28;;;;;;;42.27;29.00;;;;;;;-2.57;92.59;93955.38;4954347;28;20260;-78